ADDS METAR Data INFO
IDs: Format: Raw Decoded Include TAF

Data at: 0338 UTC 19 Jul 2018

KAOH 190253Z AUTO 10007KT 10SM CLR 17/16 A3007 RMK AO2 SLP176 T01720156 53009 $
KAOH 190153Z AUTO 09003KT 10SM CLR 20/17 A3005 RMK AO2 SLP171 T02000167 $
KAOH 190053Z AUTO 08003KT 10SM CLR 22/18 A3005 RMK AO2 SLP168 T02220178 $
KAOH 182353Z AUTO 07004KT 10SM CLR 24/17 A3004 RMK AO2 SLP166 T02440167 10267 20244 56009 $
KAOH 182253Z AUTO 07004KT 10SM CLR 26/14 A3004 RMK AO2 SLP169 T02610144 $
KAOH 182153Z AUTO 00000KT 10SM CLR 26/13 A3005 RMK AO2 SLP171 T02560133 $
KAOH 182053Z AUTO 11005KT 10SM FEW060 26/14 A3007 RMK AO2 SLP176 T02560144 58008 $
KAOH 181953Z AUTO 09005KT 10SM CLR 26/16 A3008 RMK AO2 SLP179 T02610161 $
KAOH 181853Z AUTO 10SM FEW046 BKN060 26/16 A3009 RMK AO2 SLP183 T02560156 $
KAOH 181753Z AUTO 10SM FEW045 SCT055 26/17 A3009 RMK AO2 SLP184 T02560167 10261 20172 58004 $
KAOH 181653Z AUTO 10SM FEW042 25/14 A3011 RMK AO2 SLP189 T02500139 $
KAOH 181553Z AUTO 10SM CLR 24/17 A3011 RMK AO2 SLP189 T02440172 $
KAOH 181453Z AUTO 09008KT 10SM CLR 23/16 A3010 RMK AO2 SLP188 T02330161 50002
KAOH 181353Z AUTO 10008KT 10SM CLR 22/17 A3011 RMK AO2 SLP189 T02220167
KAOH 181253Z AUTO 07004KT 10SM CLR 20/17 A3011 RMK AO2 SLP189 T02000167
KAOH 181153Z AUTO 05003KT 10SM CLR 17/16 A3010 RMK AO2 SLP186 T01720156 10178 20139 53013
KAOH 181053Z AUTO 00000KT 10SM CLR 14/14 A3008 RMK AO2 SLP182 T01440139
KAOH 180953Z AUTO 00000KT 10SM CLR 14/14 A3007 RMK AO2 SLP178 T01440139
KAOH 180853Z AUTO 00000KT 10SM CLR 15/14 A3006 RMK AO2 SLP174 T01500144 50000
KAOH 180753Z AUTO 00000KT 10SM CLR 16/14 A3006 RMK AO2 SLP173 T01610144
KAOH 180653Z AUTO 00000KT 10SM CLR 17/14 A3006 RMK AO2 SLP173 T01720144
KAOH 180553Z AUTO 00000KT 10SM CLR 18/15 A3006 RMK AO2 SLP172 T01780150 10256 20172 51006
KAOH 180453Z AUTO 36003KT 10SM CLR 19/15 A3006 RMK AO2 SLP171 T01890150 402720178
KAOH 180353Z AUTO 33004KT 10SM SCT065 20/15 A3006 RMK AO2 SLP171 T02000150
KAOH 180253Z AUTO 32004KT 10SM FEW070 19/17 A3004 RMK AO2 SLP167 T01890167 53015
KAOH 180153Z AUTO 35003KT 10SM CLR 21/16 A3002 RMK AO2 SLP161 T02060161
KAOH 180053Z AUTO 34004KT 10SM SCT070 23/16 A3001 RMK AO2 SLP155 T02330156
KAOH 172353Z AUTO 34007KT 10SM FEW070 25/15 A3000 RMK AO2 SLP151 T02500150 10272 20250 55001
KAOH 172253Z AUTO 34007KT 10SM CLR 27/15 A2999 RMK AO2 SLP149 T02670150
KAOH 172153Z AUTO 33005KT 10SM CLR 26/16 A2999 RMK AO2 SLP150 T02560156
KAOH 172053Z AUTO 34012KT 10SM CLR 26/14 A3000 RMK AO2 SLP152 T02610139 56002
KAOH 171953Z AUTO 33009G17KT 10SM FEW070 27/16 A3000 RMK AO2 SLP152 T02720156
KAOH 171853Z AUTO 34013G18KT 10SM FEW065 27/15 A3000 RMK AO2 SLP152 T02720150
KAOH 171753Z AUTO 33011G15KT 10SM CLR 27/15 A3001 RMK AO2 SLP153 T02720150 10272 20194 58006
KAOH 171653Z AUTO 34012G20KT 10SM FEW050 27/16 A3002 RMK AO2 SLP157 T02670156
KAOH 171553Z AUTO 29008KT 250V320 10SM CLR 26/17 A3002 RMK AO2 SLP159 T02560167